Terminal Aerodrome Forecast
Issued by NWS

Home | Current Version | Previous Version | Text Only | Print | Product List | Glossary On
Versions: 1 2 3 4 5 6 7 8 9 10 11 12 13 14 15 16 17 18 19 20 21 22 23 24 25 26 27 28 29 30
000
FTUS46 KOTX 300749 AAA
TAFSFF
TAF AMD
KSFF 300749Z 3008/0106 VRB03KT P6SM -SHRA OVC015
     FM301600 05004KT P6SM BKN030 OVC040
     FM301900 VRB03KT P6SM VCSH BKN040 BKN070
     FM302300 36005KT P6SM SCT050 SCT150=

USA.gov is the U.S. government's official web portal to all federal, state and local government web resources and services.